QFA7 YSSY-KDFW
Flight info
| Callsign | QFA7 |
|---|---|
| Flight time | N/A |
| Altitude | 31000 |
| Route | NOBAR B580 IFFEY DCT 2830S15853E 2515S16216E/N0495F330 2430S16300E 2145S16535E 1843S16937E 1550S17503E 1400S17805E 1202S17903W 0904S17508W/N0492F350 0616S17133W 0542S17050W 0500S16959W 0209S16635W 0124S16543W 0201N16159W 0346N16010W/N0489F370 0721N15635W 0817N15541W 1202N15146W 1435N14838W 1636N14551W 1931N14104W/N0481F390 2124N13716W 2340N13205W 2522N12724W 2652N12146W/N0486F410 2713N12000W 2732N11815W 2740N11712W DCT GRN DCT HMO DCT ILAMA DCT WASIX DCT GEEKY DCT BOOVE SHMPP3 |
| Aircraft | B744/H-SDE3FGHIM1M2RWXY/LB1 |
Departure
| Time | 2026-05-05 22:48 |
|---|---|
| Airport | Sydney Kingsford Smith International Airport (YSSY) |
Arrival
| Time | N/A |
|---|---|
| Airport | Dallas Fort Worth International Airport (KDFW) |
| Time | Latitude | Longitude | Altitude | Speed | Heading |
|---|---|---|---|---|---|
| 2026-05-05 22:36 | -33.94015 | 151.16614 | 27 ft | 0 kts | 344° |
| 2026-05-05 22:38 | -33.94023 | 151.16617 | 27 ft | 2 kts | 344° |
| 2026-05-05 22:38 | -33.94038 | 151.16621 | 27 ft | 2 kts | 344° |
| 2026-05-05 22:38 | -33.94052 | 151.16626 | 26 ft | 2 kts | 347° |
| 2026-05-05 22:38 | -33.94067 | 151.16628 | 26 ft | 2 kts | 5° |
| 2026-05-05 22:39 | -33.94082 | 151.16625 | 26 ft | 2 kts | 17° |
| 2026-05-05 22:39 | -33.94096 | 151.16617 | 25 ft | 2 kts | 31° |
| 2026-05-05 22:39 | -33.94107 | 151.16606 | 25 ft | 2 kts | 44° |
| 2026-05-05 22:39 | -33.94117 | 151.16592 | 25 ft | 2 kts | 58° |
| 2026-05-05 22:40 | -33.94124 | 151.16577 | 24 ft | 2 kts | 71° |
| 2026-05-05 22:40 | -33.94126 | 151.16569 | 24 ft | 1 kts | 75° |
| 2026-05-05 22:40 | -33.94127 | 151.16568 | 24 ft | 0 kts | 75° |
| 2026-05-05 22:41 | -33.94125 | 151.16577 | 24 ft | 4 kts | 75° |
| 2026-05-05 22:42 | -33.94105 | 151.16658 | 26 ft | 16 kts | 73° |
| 2026-05-05 22:42 | -33.94059 | 151.16853 | 27 ft | 30 kts | 74° |
| 2026-05-05 22:42 | -33.94004 | 151.17087 | 27 ft | 19 kts | 74° |
| 2026-05-05 22:42 | -33.93993 | 151.17213 | 23 ft | 13 kts | 133° |
| 2026-05-05 22:43 | -33.94083 | 151.17253 | 23 ft | 15 kts | 168° |
| 2026-05-05 22:43 | -33.94207 | 151.17285 | 24 ft | 22 kts | 168° |
| 2026-05-05 22:43 | -33.94403 | 151.17335 | 25 ft | 34 kts | 168° |
| 2026-05-05 22:43 | -33.94673 | 151.17406 | 24 ft | 41 kts | 168° |
| 2026-05-05 22:44 | -33.94952 | 151.17477 | 22 ft | 38 kts | 168° |
| 2026-05-05 22:44 | -33.95200 | 151.17541 | 18 ft | 35 kts | 168° |
| 2026-05-05 22:44 | -33.95428 | 151.17601 | 18 ft | 31 kts | 168° |
| 2026-05-05 22:44 | -33.95629 | 151.17653 | 18 ft | 28 kts | 168° |
| 2026-05-05 22:45 | -33.95823 | 151.17705 | 18 ft | 29 kts | 168° |
| 2026-05-05 22:45 | -33.96028 | 151.17757 | 18 ft | 30 kts | 168° |
| 2026-05-05 22:45 | -33.96235 | 151.17812 | 18 ft | 30 kts | 168° |
| 2026-05-05 22:45 | -33.96404 | 151.17856 | 16 ft | 16 kts | 159° |
| 2026-05-05 22:46 | -33.96437 | 151.17941 | 18 ft | 10 kts | 83° |
| 2026-05-05 22:46 | -33.96418 | 151.18027 | 18 ft | 11 kts | 53° |
| 2026-05-05 22:46 | -33.96342 | 151.18042 | 18 ft | 8 kts | 347° |
| 2026-05-05 22:46 | -33.96340 | 151.18042 | 18 ft | 0 kts | 347° |
| 2026-05-05 22:47 | -33.96276 | 151.18024 | 18 ft | 31 kts | 347° |
| 2026-05-05 22:47 | -33.95859 | 151.17917 | 19 ft | 89 kts | 347° |
| 2026-05-05 22:47 | -33.95076 | 151.17714 | 22 ft | 139 kts | 347° |
| 2026-05-05 22:47 | -33.93975 | 151.17430 | 38 ft | 178 kts | 347° |
| 2026-05-05 22:48 | -33.92768 | 151.17119 | 526 ft | 172 kts | 348° |
| 2026-05-05 22:48 | -33.91569 | 151.17041 | 758 ft | 184 kts | 13° |
| 2026-05-05 22:48 | -33.90421 | 151.17754 | 1010 ft | 193 kts | 44° |
| 2026-05-05 22:48 | -33.89708 | 151.19106 | 1401 ft | 201 kts | 73° |
| 2026-05-05 22:49 | -33.89639 | 151.20773 | 1966 ft | 203 kts | 101° |
| 2026-05-05 22:49 | -33.89975 | 151.22459 | 2402 ft | 217 kts | 101° |
| 2026-05-05 22:49 | -33.90229 | 151.24303 | 2852 ft | 228 kts | 95° |
| 2026-05-05 22:49 | -33.90352 | 151.26218 | 3541 ft | 228 kts | 91° |
| 2026-05-05 22:50 | -33.90368 | 151.28116 | 4191 ft | 230 kts | 87° |
| 2026-05-05 22:50 | -33.90285 | 151.30032 | 4736 ft | 236 kts | 84° |
| 2026-05-05 22:50 | -33.90103 | 151.32062 | 5080 ft | 251 kts | 81° |
| 2026-05-05 22:50 | -33.89821 | 151.34198 | 5339 ft | 267 kts | 78° |
| 2026-05-05 22:51 | -33.89445 | 151.36418 | 5754 ft | 271 kts | 76° |
| 2026-05-05 22:51 | -33.89008 | 151.38605 | 6254 ft | 272 kts | 75° |
| 2026-05-05 22:51 | -33.88507 | 151.40839 | 6705 ft | 275 kts | 73° |
| 2026-05-05 22:51 | -33.87963 | 151.43051 | 7125 ft | 278 kts | 72° |
| 2026-05-05 22:52 | -33.87381 | 151.45264 | 7556 ft | 282 kts | 71° |
| 2026-05-05 22:52 | -33.86760 | 151.47527 | 8006 ft | 285 kts | 70° |
| 2026-05-05 22:52 | -33.86120 | 151.49774 | 8443 ft | 288 kts | 70° |
| 2026-05-05 22:52 | -33.85450 | 151.52061 | 8869 ft | 292 kts | 69° |
| 2026-05-05 22:53 | -33.84757 | 151.54367 | 9305 ft | 295 kts | 69° |
| 2026-05-05 22:53 | -33.84050 | 151.56689 | 9738 ft | 298 kts | 69° |
| 2026-05-05 22:53 | -33.83311 | 151.59041 | 10170 ft | 301 kts | 69° |
| 2026-05-05 22:53 | -33.82569 | 151.61412 | 10600 ft | 304 kts | 69° |
| 2026-05-05 22:54 | -33.81822 | 151.63798 | 10982 ft | 310 kts | 69° |
| 2026-05-05 22:54 | -33.81055 | 151.66248 | 11308 ft | 318 kts | 68° |
| 2026-05-05 22:54 | -33.80254 | 151.68802 | 11545 ft | 328 kts | 68° |
| 2026-05-05 22:54 | -33.79447 | 151.71385 | 11875 ft | 334 kts | 68° |
| 2026-05-05 22:55 | -33.78564 | 151.73965 | 12309 ft | 334 kts | 59° |
| 2026-05-05 22:55 | -33.77201 | 151.76259 | 12717 ft | 335 kts | 48° |
| 2026-05-05 22:55 | -33.75699 | 151.78365 | 13167 ft | 337 kts | 49° |
| 2026-05-05 22:55 | -33.74195 | 151.80582 | 13614 ft | 339 kts | 49° |
| 2026-05-05 22:56 | -33.72698 | 151.82805 | 14066 ft | 342 kts | 49° |
| 2026-05-05 22:56 | -33.71187 | 151.85040 | 14520 ft | 345 kts | 49° |
| 2026-05-05 22:56 | -33.69665 | 151.87293 | 14988 ft | 347 kts | 49° |
| 2026-05-05 22:56 | -33.68135 | 151.89548 | 15444 ft | 351 kts | 49° |
| 2026-05-05 22:57 | -33.66595 | 151.91821 | 15916 ft | 353 kts | 49° |
| 2026-05-05 22:57 | -33.65038 | 151.94124 | 16375 ft | 356 kts | 49° |
| 2026-05-05 22:57 | -33.63468 | 151.96442 | 16859 ft | 358 kts | 49° |
| 2026-05-05 22:57 | -33.61899 | 151.98756 | 17306 ft | 361 kts | 49° |
| 2026-05-05 22:58 | -33.60304 | 152.01112 | 17771 ft | 364 kts | 49° |
| 2026-05-05 22:58 | -33.58685 | 152.03497 | 18256 ft | 366 kts | 49° |
| 2026-05-05 22:58 | -33.57082 | 152.05861 | 18730 ft | 367 kts | 49° |
| 2026-05-05 22:58 | -33.55455 | 152.08256 | 19206 ft | 369 kts | 48° |
| 2026-05-05 22:59 | -33.53834 | 152.10638 | 19675 ft | 371 kts | 48° |
| 2026-05-05 22:59 | -33.52211 | 152.13025 | 20116 ft | 374 kts | 48° |
| 2026-05-05 22:59 | -33.50532 | 152.15486 | 20554 ft | 378 kts | 48° |
| 2026-05-05 22:59 | -33.48862 | 152.17938 | 20998 ft | 381 kts | 48° |
| 2026-05-05 23:00 | -33.45506 | 152.22864 | 21905 ft | 386 kts | 48° |
| 2026-05-05 23:00 | -33.43790 | 152.25380 | 22352 ft | 388 kts | 48° |
| 2026-05-05 23:00 | -33.42084 | 152.27872 | 22765 ft | 390 kts | 47° |
| 2026-05-05 23:01 | -33.40364 | 152.30391 | 23161 ft | 393 kts | 47° |
| 2026-05-05 23:01 | -33.38612 | 152.32948 | 23549 ft | 395 kts | 47° |
| 2026-05-05 23:01 | -33.36881 | 152.35483 | 23901 ft | 398 kts | 47° |
| 2026-05-05 23:01 | -33.35125 | 152.38048 | 24244 ft | 401 kts | 47° |
| 2026-05-05 23:02 | -33.33349 | 152.40634 | 24591 ft | 403 kts | 47° |
| 2026-05-05 23:02 | -33.31556 | 152.43248 | 24943 ft | 406 kts | 47° |
| 2026-05-05 23:02 | -33.29767 | 152.45853 | 25287 ft | 408 kts | 47° |
| 2026-05-05 23:02 | -33.27957 | 152.48489 | 25626 ft | 410 kts | 47° |
| 2026-05-05 23:03 | -33.26141 | 152.51132 | 25952 ft | 412 kts | 47° |
| 2026-05-05 23:03 | -33.24328 | 152.53773 | 26262 ft | 414 kts | 46° |
| 2026-05-05 23:03 | -33.22494 | 152.56433 | 26546 ft | 416 kts | 46° |
| 2026-05-05 23:03 | -33.20647 | 152.59109 | 26835 ft | 418 kts | 46° |
| 2026-05-05 23:04 | -33.18775 | 152.61824 | 27105 ft | 420 kts | 46° |
| 2026-05-05 23:04 | -33.16874 | 152.64575 | 27380 ft | 423 kts | 46° |
| 2026-05-05 23:04 | -33.15004 | 152.67285 | 27645 ft | 424 kts | 45° |
| 2026-05-05 23:04 | -33.13114 | 152.70021 | 27911 ft | 426 kts | 45° |
| 2026-05-05 23:05 | -33.11192 | 152.72798 | 28174 ft | 427 kts | 45° |
| 2026-05-05 23:05 | -33.09296 | 152.75537 | 28413 ft | 429 kts | 45° |
| 2026-05-05 23:05 | -33.07384 | 152.78293 | 28633 ft | 431 kts | 45° |
| 2026-05-05 23:05 | -33.05474 | 152.81050 | 28845 ft | 433 kts | 45° |
| 2026-05-05 23:06 | -33.03556 | 152.83817 | 29059 ft | 435 kts | 45° |
| 2026-05-05 23:06 | -33.01617 | 152.86604 | 29283 ft | 436 kts | 45° |
| 2026-05-05 23:06 | -32.99658 | 152.89421 | 29517 ft | 437 kts | 45° |
| 2026-05-05 23:06 | -32.97741 | 152.92178 | 29736 ft | 438 kts | 45° |
| 2026-05-05 23:07 | -32.95788 | 152.94987 | 29948 ft | 439 kts | 45° |
| 2026-05-05 23:07 | -32.93824 | 152.97804 | 30124 ft | 441 kts | 45° |
| 2026-05-05 23:07 | -32.91846 | 153.00642 | 30308 ft | 442 kts | 45° |
| 2026-05-05 23:07 | -32.89873 | 153.03473 | 30460 ft | 444 kts | 45° |
| 2026-05-05 23:08 | -32.87884 | 153.06323 | 30624 ft | 446 kts | 45° |
| 2026-05-05 23:08 | -32.85918 | 153.09137 | 30785 ft | 447 kts | 45° |
| 2026-05-05 23:08 | -32.83918 | 153.12001 | 30956 ft | 449 kts | 45° |
| 2026-05-05 23:08 | -32.81921 | 153.14856 | 31128 ft | 450 kts | 44° |
| 2026-05-05 23:09 | -32.79912 | 153.17723 | 31294 ft | 451 kts | 44° |
| 2026-05-05 23:09 | -32.77902 | 153.20592 | 31418 ft | 453 kts | 44° |
| 2026-05-05 23:09 | -32.75861 | 153.23509 | 31551 ft | 455 kts | 44° |
| 2026-05-05 23:09 | -32.73827 | 153.26402 | 31681 ft | 456 kts | 44° |
| 2026-05-05 23:10 | -32.71793 | 153.29300 | 31820 ft | 457 kts | 44° |
| 2026-05-05 23:10 | -32.69728 | 153.32242 | 31969 ft | 458 kts | 44° |
| 2026-05-05 23:10 | -32.67671 | 153.35153 | 32100 ft | 460 kts | 44° |
| 2026-05-05 23:10 | -32.65611 | 153.38078 | 32224 ft | 461 kts | 44° |
| 2026-05-05 23:11 | -32.63534 | 153.41025 | 32350 ft | 462 kts | 44° |
| 2026-05-05 23:11 | -32.61454 | 153.43974 | 32471 ft | 463 kts | 44° |
| 2026-05-05 23:11 | -32.59386 | 153.46913 | 32594 ft | 464 kts | 44° |
| 2026-05-05 23:11 | -32.57308 | 153.49849 | 32716 ft | 465 kts | 44° |
| 2026-05-05 23:12 | -32.55222 | 153.52805 | 32832 ft | 466 kts | 44° |
| 2026-05-05 23:12 | -32.53130 | 153.55760 | 32958 ft | 466 kts | 44° |
| 2026-05-05 23:12 | -32.51017 | 153.58746 | 33069 ft | 467 kts | 44° |
| 2026-05-05 23:12 | -32.48930 | 153.61691 | 33150 ft | 468 kts | 44° |
| 2026-05-05 23:13 | -32.44725 | 153.67624 | 33274 ft | 471 kts | 43° |
| 2026-05-05 23:13 | -32.40477 | 153.73590 | 33358 ft | 474 kts | 43° |
| 2026-05-05 23:14 | -32.36215 | 153.79579 | 33493 ft | 475 kts | 43° |
| 2026-05-05 23:14 | -32.31926 | 153.85606 | 33658 ft | 476 kts | 43° |
| 2026-05-05 23:15 | -32.29782 | 153.88611 | 33806 ft | 476 kts | 43° |
| 2026-05-05 23:15 | -32.27656 | 153.91592 | 33955 ft | 476 kts | 42° |
| 2026-05-05 23:15 | -32.23337 | 153.97618 | 34109 ft | 481 kts | 43° |
| 2026-05-05 23:16 | -32.18948 | 154.03744 | 34158 ft | 488 kts | 43° |
| 2026-05-05 23:16 | -32.14526 | 154.09907 | 34166 ft | 496 kts | 43° |
| 2026-05-05 23:17 | -32.09972 | 154.16246 | 34165 ft | 504 kts | 43° |
| 2026-05-05 23:17 | -32.05383 | 154.22629 | 34165 ft | 513 kts | 43° |
| 2026-05-05 23:18 | -32.00700 | 154.29099 | 34164 ft | 520 kts | 43° |
| 2026-05-05 23:18 | -31.96017 | 154.35677 | 34145 ft | 526 kts | 44° |
| 2026-05-05 23:19 | -31.91215 | 154.42291 | 34147 ft | 529 kts | 43° |
| 2026-05-05 23:19 | -31.86395 | 154.48955 | 34144 ft | 532 kts | 43° |
| 2026-05-05 23:20 | -31.81582 | 154.55602 | 34132 ft | 532 kts | 43° |
| 2026-05-05 23:20 | -31.76735 | 154.62285 | 34128 ft | 531 kts | 43° |
| 2026-05-05 23:21 | -31.71948 | 154.68872 | 34117 ft | 530 kts | 42° |
| 2026-05-05 23:21 | -31.67147 | 154.75461 | 34123 ft | 530 kts | 42° |
| 2026-05-05 23:22 | -31.62321 | 154.82085 | 34136 ft | 530 kts | 42° |
| 2026-05-05 23:22 | -31.57500 | 154.88686 | 34150 ft | 530 kts | 43° |
| 2026-05-05 23:23 | -31.52665 | 154.95293 | 34135 ft | 530 kts | 43° |
| 2026-05-05 23:23 | -31.47877 | 155.01834 | 34129 ft | 529 kts | 43° |
| 2026-05-05 23:24 | -31.43058 | 155.08403 | 34124 ft | 529 kts | 42° |
| 2026-05-05 23:24 | -31.38205 | 155.14993 | 34120 ft | 530 kts | 43° |
| 2026-05-05 23:25 | -31.33398 | 155.21524 | 34129 ft | 530 kts | 43° |
| 2026-05-05 23:25 | -31.28550 | 155.28104 | 34129 ft | 530 kts | 43° |
| 2026-05-05 23:26 | -31.23701 | 155.34663 | 34122 ft | 530 kts | 42° |
| 2026-05-05 23:26 | -31.18872 | 155.41188 | 34128 ft | 530 kts | 43° |
| 2026-05-05 23:27 | -31.14018 | 155.47725 | 34123 ft | 529 kts | 42° |
| 2026-05-05 23:27 | -31.09160 | 155.54266 | 34121 ft | 530 kts | 42° |
| 2026-05-05 23:28 | -31.04290 | 155.60806 | 34120 ft | 530 kts | 42° |
| 2026-05-05 23:28 | -30.99422 | 155.67343 | 34103 ft | 530 kts | 41° |
| 2026-05-05 23:29 | -30.94557 | 155.73857 | 34104 ft | 530 kts | 41° |
| 2026-05-05 23:29 | -30.89701 | 155.80345 | 34100 ft | 530 kts | 42° |
| 2026-05-05 23:30 | -30.84827 | 155.86852 | 34162 ft | 532 kts | 42° |
| 2026-05-05 23:30 | -30.79954 | 155.93350 | 34125 ft | 531 kts | 41° |
| 2026-05-05 23:31 | -30.75101 | 155.99808 | 34105 ft | 530 kts | 41° |
| 2026-05-05 23:31 | -30.70192 | 156.06326 | 34102 ft | 529 kts | 42° |
| 2026-05-05 23:32 | -30.65323 | 156.12773 | 34104 ft | 529 kts | 42° |
| 2026-05-05 23:32 | -30.60438 | 156.19235 | 34109 ft | 531 kts | 41° |
| 2026-05-05 23:33 | -30.55529 | 156.25726 | 34109 ft | 532 kts | 42° |
| 2026-05-05 23:33 | -30.50639 | 156.32176 | 34092 ft | 531 kts | 41° |
| 2026-05-05 23:34 | -30.45720 | 156.38667 | 34108 ft | 531 kts | 41° |
| 2026-05-05 23:34 | -30.40805 | 156.45120 | 34096 ft | 531 kts | 41° |
| 2026-05-05 23:35 | -30.35908 | 156.51549 | 34102 ft | 532 kts | 41° |
| 2026-05-05 23:35 | -30.30965 | 156.58023 | 34102 ft | 532 kts | 41° |
| 2026-05-05 23:36 | -30.26040 | 156.64462 | 34100 ft | 533 kts | 41° |
| 2026-05-05 23:36 | -30.21115 | 156.70908 | 34080 ft | 532 kts | 41° |
| 2026-05-05 23:37 | -30.16162 | 156.77361 | 34097 ft | 531 kts | 41° |
| 2026-05-05 23:37 | -30.11241 | 156.83769 | 34092 ft | 531 kts | 41° |
| 2026-05-05 23:38 | -30.06306 | 156.90187 | 34091 ft | 531 kts | 41° |
| 2026-05-05 23:38 | -30.01383 | 156.96571 | 34095 ft | 532 kts | 41° |
| 2026-05-05 23:39 | -29.96413 | 157.03008 | 34089 ft | 533 kts | 41° |
| 2026-05-05 23:39 | -29.91465 | 157.09409 | 34094 ft | 532 kts | 40° |
| 2026-05-05 23:40 | -29.86516 | 157.15805 | 34095 ft | 532 kts | 40° |
| 2026-05-05 23:40 | -29.81548 | 157.22205 | 34094 ft | 532 kts | 41° |
| 2026-05-05 23:41 | -29.76584 | 157.28592 | 34092 ft | 532 kts | 41° |
| 2026-05-05 23:41 | -29.71593 | 157.35008 | 34091 ft | 533 kts | 41° |
| 2026-05-05 23:42 | -29.66628 | 157.41377 | 34088 ft | 534 kts | 41° |
| 2026-05-05 23:42 | -29.61641 | 157.47769 | 34099 ft | 534 kts | 41° |
| 2026-05-05 23:43 | -29.56641 | 157.54149 | 34089 ft | 533 kts | 41° |
| 2026-05-05 23:43 | -29.51647 | 157.60532 | 34090 ft | 534 kts | 41° |
| 2026-05-05 23:44 | -29.46669 | 157.66879 | 34090 ft | 534 kts | 40° |
| 2026-05-05 23:44 | -29.41680 | 157.73228 | 34072 ft | 533 kts | 40° |
| 2026-05-05 23:45 | -29.36697 | 157.79568 | 34090 ft | 534 kts | 40° |
| 2026-05-05 23:45 | -29.31691 | 157.85927 | 34091 ft | 534 kts | 40° |
| 2026-05-05 23:46 | -29.26666 | 157.92288 | 34084 ft | 534 kts | 40° |
| 2026-05-05 23:46 | -29.21650 | 157.98628 | 34091 ft | 534 kts | 40° |
| 2026-05-05 23:47 | -29.16636 | 158.04958 | 34083 ft | 535 kts | 40° |
| 2026-05-05 23:47 | -29.11580 | 158.11325 | 34095 ft | 537 kts | 40° |
| 2026-05-05 23:48 | -29.06545 | 158.17662 | 34087 ft | 539 kts | 40° |
| 2026-05-05 23:48 | -29.01635 | 158.23834 | 34094 ft | 538 kts | 40° |
| 2026-05-05 23:49 | -28.96562 | 158.30196 | 34075 ft | 538 kts | 40° |
| 2026-05-05 23:49 | -28.91508 | 158.36539 | 34068 ft | 536 kts | 40° |
| 2026-05-05 23:50 | -28.86461 | 158.42842 | 34070 ft | 537 kts | 40° |
| 2026-05-05 23:50 | -28.81390 | 158.49179 | 34070 ft | 538 kts | 40° |
| 2026-05-05 23:51 | -28.76335 | 158.55487 | 34068 ft | 539 kts | 40° |
| 2026-05-05 23:51 | -28.71272 | 158.61801 | 34059 ft | 537 kts | 40° |
| 2026-05-05 23:52 | -28.66206 | 158.68097 | 34052 ft | 536 kts | 40° |
| 2026-05-05 23:52 | -28.61140 | 158.74393 | 34052 ft | 536 kts | 40° |
| 2026-05-05 23:53 | -28.56030 | 158.80679 | 34071 ft | 537 kts | 40° |
| 2026-05-05 23:53 | -28.50968 | 158.87013 | 34066 ft | 539 kts | 41° |
| 2026-05-05 23:54 | -28.45641 | 158.92969 | 34066 ft | 531 kts | 35° |
| 2026-05-05 23:54 | -28.40241 | 158.98793 | 34066 ft | 532 kts | 35° |
| 2026-05-05 23:55 | -28.34851 | 159.04619 | 34066 ft | 533 kts | 36° |
| 2026-05-05 23:55 | -28.29443 | 159.10465 | 34076 ft | 531 kts | 36° |
| 2026-05-05 23:56 | -28.24108 | 159.16219 | 34067 ft | 530 kts | 36° |
| 2026-05-05 23:56 | -28.18719 | 159.22009 | 34071 ft | 533 kts | 36° |
| 2026-05-05 23:57 | -28.13294 | 159.27852 | 34065 ft | 533 kts | 36° |
| 2026-05-05 23:57 | -28.07893 | 159.33650 | 34069 ft | 533 kts | 36° |
| 2026-05-05 23:58 | -28.02484 | 159.39459 | 34084 ft | 532 kts | 36° |
| 2026-05-05 23:58 | -27.97072 | 159.45247 | 34056 ft | 532 kts | 36° |
| 2026-05-05 23:59 | -27.91651 | 159.51054 | 34065 ft | 534 kts | 36° |
| 2026-05-05 23:59 | -27.86220 | 159.56854 | 34067 ft | 535 kts | 36° |
| 2026-05-06 00:00 | -27.80773 | 159.62653 | 34075 ft | 535 kts | 36° |
| 2026-05-06 00:00 | -27.75358 | 159.68433 | 34039 ft | 533 kts | 36° |
| 2026-05-06 00:01 | -27.69933 | 159.74194 | 34055 ft | 534 kts | 36° |
| 2026-05-06 00:01 | -27.64515 | 159.79947 | 34058 ft | 535 kts | 36° |
| 2026-05-06 00:02 | -27.59052 | 159.85742 | 34071 ft | 535 kts | 36° |
| 2026-05-06 00:02 | -27.53619 | 159.91486 | 34069 ft | 534 kts | 36° |
| 2026-05-06 00:03 | -27.48144 | 159.97276 | 34059 ft | 535 kts | 36° |
| 2026-05-06 00:03 | -27.42666 | 160.03062 | 34067 ft | 536 kts | 36° |
| 2026-05-06 00:04 | -27.37150 | 160.08865 | 34060 ft | 538 kts | 36° |
| 2026-05-06 00:04 | -27.31650 | 160.14658 | 34071 ft | 539 kts | 36° |
| 2026-05-06 00:05 | -27.23404 | 160.23328 | 34063 ft | 537 kts | 36° |
| 2026-05-06 00:06 | -27.17891 | 160.29106 | 34048 ft | 538 kts | 36° |
| 2026-05-06 00:06 | -27.12374 | 160.34888 | 34079 ft | 540 kts | 36° |
| 2026-05-06 00:07 | -27.06856 | 160.40651 | 34059 ft | 541 kts | 36° |
| 2026-05-06 00:07 | -27.01302 | 160.46463 | 34064 ft | 540 kts | 36° |
| 2026-05-06 00:08 | -26.95765 | 160.52223 | 34061 ft | 539 kts | 36° |
| 2026-05-06 00:08 | -26.90206 | 160.58037 | 34058 ft | 538 kts | 36° |
| 2026-05-06 00:09 | -26.84713 | 160.63739 | 34067 ft | 538 kts | 36° |
| 2026-05-06 00:09 | -26.79177 | 160.69487 | 34043 ft | 536 kts | 35° |
| 2026-05-06 00:10 | -26.73704 | 160.75163 | 34050 ft | 537 kts | 35° |
| 2026-05-06 00:10 | -26.68173 | 160.80896 | 34061 ft | 538 kts | 35° |
| 2026-05-06 00:11 | -26.62648 | 160.86603 | 34062 ft | 538 kts | 36° |
| 2026-05-06 00:11 | -26.57130 | 160.92308 | 34062 ft | 537 kts | 35° |
| 2026-05-06 00:12 | -26.51642 | 160.97984 | 34052 ft | 536 kts | 35° |
| 2026-05-06 00:12 | -26.46104 | 161.03662 | 34063 ft | 537 kts | 35° |
| 2026-05-06 00:13 | -26.40574 | 161.09364 | 34060 ft | 539 kts | 35° |
| 2026-05-06 00:13 | -26.34999 | 161.15091 | 34074 ft | 539 kts | 36° |
| 2026-05-06 00:14 | -26.29452 | 161.20776 | 34065 ft | 539 kts | 36° |
| 2026-05-06 00:14 | -26.23898 | 161.26456 | 34069 ft | 539 kts | 36° |
| 2026-05-06 00:15 | -26.18322 | 161.32167 | 34070 ft | 541 kts | 36° |
| 2026-05-06 00:15 | -26.12723 | 161.37880 | 34061 ft | 541 kts | 36° |
| 2026-05-06 00:16 | -26.07156 | 161.43570 | 34060 ft | 540 kts | 36° |
| 2026-05-06 00:16 | -26.01595 | 161.49225 | 34055 ft | 540 kts | 36° |
| 2026-05-06 00:17 | -25.95991 | 161.54927 | 34046 ft | 541 kts | 36° |
| 2026-05-06 00:17 | -25.90426 | 161.60588 | 34056 ft | 542 kts | 36° |
| 2026-05-06 00:18 | -25.84814 | 161.66284 | 34071 ft | 541 kts | 35° |
| 2026-05-06 00:18 | -25.79221 | 161.71957 | 34047 ft | 541 kts | 35° |
| 2026-05-06 00:19 | -25.73635 | 161.77611 | 34064 ft | 541 kts | 36° |
| 2026-05-06 00:19 | -25.68043 | 161.83252 | 34066 ft | 541 kts | 36° |
| 2026-05-06 00:20 | -25.62450 | 161.88908 | 34062 ft | 542 kts | 36° |
| 2026-05-06 00:20 | -25.56839 | 161.94559 | 34054 ft | 543 kts | 36° |
| 2026-05-06 00:21 | -25.51228 | 162.00226 | 34054 ft | 542 kts | 36° |
| 2026-05-06 00:21 | -25.45582 | 162.05891 | 34046 ft | 541 kts | 36° |
| 2026-05-06 00:22 | -25.39999 | 162.11505 | 34050 ft | 541 kts | 36° |
| 2026-05-06 00:22 | -25.34346 | 162.17152 | 34060 ft | 543 kts | 36° |
| 2026-05-06 00:23 | -25.28693 | 162.22809 | 34054 ft | 544 kts | 36° |
| 2026-05-06 00:23 | -25.23057 | 162.28574 | 34030 ft | 544 kts | 35° |
| 2026-05-06 00:24 | -25.17373 | 162.34071 | 34043 ft | 542 kts | 35° |
| 2026-05-06 00:24 | -25.11674 | 162.39664 | 34033 ft | 541 kts | 36° |
| 2026-05-06 00:25 | -25.06004 | 162.45227 | 34032 ft | 542 kts | 36° |
| 2026-05-06 00:25 | -25.00308 | 162.50809 | 34028 ft | 544 kts | 36° |
| 2026-05-06 00:26 | -24.94636 | 162.56366 | 34024 ft | 544 kts | 36° |
| 2026-05-06 00:26 | -24.88902 | 162.61981 | 34031 ft | 544 kts | 36° |
| 2026-05-06 00:27 | -24.83246 | 162.67508 | 34010 ft | 542 kts | 36° |
| 2026-05-06 00:27 | -24.77558 | 162.73056 | 34015 ft | 541 kts | 36° |
| 2026-05-06 00:28 | -24.71894 | 162.78590 | 34029 ft | 542 kts | 36° |
| 2026-05-06 00:28 | -24.66230 | 162.84106 | 34032 ft | 543 kts | 36° |
| 2026-05-06 00:29 | -24.60513 | 162.89661 | 34024 ft | 542 kts | 36° |
| 2026-05-06 00:29 | -24.54819 | 162.95169 | 34029 ft | 543 kts | 36° |
| 2026-05-06 00:30 | -24.49164 | 163.00780 | 34027 ft | 544 kts | 37° |
| 2026-05-06 00:30 | -24.43446 | 163.06223 | 34032 ft | 544 kts | 36° |
| 2026-05-06 00:31 | -24.37684 | 163.11769 | 34020 ft | 544 kts | 36° |
| 2026-05-06 00:31 | -24.31967 | 163.17271 | 34025 ft | 543 kts | 36° |
| 2026-05-06 00:32 | -24.26220 | 163.22806 | 34023 ft | 544 kts | 36° |
| 2026-05-06 00:32 | -24.20497 | 163.28308 | 34030 ft | 544 kts | 36° |
| 2026-05-06 00:33 | -24.14740 | 163.33830 | 34029 ft | 544 kts | 36° |